createdAt,value
2023-01-03T00:00:19.499Z,0.00
2023-01-03T00:01:19.521Z,0.00
2023-01-03T00:02:19.517Z,0.00
2023-01-03T00:03:19.474Z,0.00
2023-01-03T00:04:19.538Z,0.00
2023-01-03T00:05:19.449Z,0.00
2023-01-03T00:06:19.449Z,0.00
2023-01-03T00:07:19.427Z,0.00
2023-01-03T00:08:19.403Z,0.00
2023-01-03T00:09:19.395Z,0.00
2023-01-03T00:10:19.388Z,0.00
2023-01-03T00:11:19.378Z,0.00
2023-01-03T00:12:19.348Z,0.00
2023-01-03T00:13:19.348Z,0.00
2023-01-03T00:14:19.341Z,0.00
2023-01-03T00:15:19.343Z,0.00
2023-01-03T00:16:19.389Z,0.00
2023-01-03T00:17:19.422Z,0.00
2023-01-03T00:18:19.319Z,0.00
2023-01-03T00:19:19.299Z,0.00
2023-01-03T00:20:19.293Z,0.00
2023-01-03T00:21:19.271Z,0.00
2023-01-03T00:22:19.262Z,0.00
2023-01-03T00:23:19.241Z,0.00
2023-01-03T00:24:19.236Z,0.00
2023-01-03T00:25:19.248Z,0.00
2023-01-03T00:26:19.209Z,0.00
2023-01-03T00:27:19.236Z,0.00
2023-01-03T00:28:19.211Z,0.00
2023-01-03T00:29:19.205Z,0.00
2023-01-03T00:30:19.190Z,0.00
2023-01-03T00:31:19.185Z,0.00
2023-01-03T00:32:19.152Z,0.00
2023-01-03T00:33:19.170Z,0.00
2023-01-03T00:34:19.120Z,0.00
2023-01-03T00:35:19.135Z,0.00
2023-01-03T00:36:19.112Z,0.00
2023-01-03T00:37:19.092Z,0.00
2023-01-03T00:38:19.083Z,0.00
2023-01-03T00:39:19.082Z,0.00
2023-01-03T00:40:19.074Z,0.00
2023-01-03T00:41:19.064Z,0.00
2023-01-03T00:42:19.053Z,0.00
2023-01-03T00:43:19.053Z,0.00
2023-01-03T00:44:19.012Z,0.00
2023-01-03T00:45:20.384Z,0.00
2023-01-03T00:46:19.132Z,0.00
2023-01-03T00:47:18.994Z,0.00
2023-01-03T00:48:19.004Z,0.00
2023-01-03T00:49:18.974Z,0.00
2023-01-03T00:50:18.960Z,0.00
2023-01-03T00:51:18.972Z,0.00
2023-01-03T00:52:18.935Z,0.00
2023-01-03T00:53:18.919Z,0.00
2023-01-03T00:54:18.926Z,0.00
2023-01-03T00:55:18.911Z,0.00
2023-01-03T00:56:18.885Z,0.00
2023-01-03T00:57:18.898Z,0.00
2023-01-03T00:58:18.877Z,0.00
2023-01-03T00:59:18.888Z,0.00
2023-01-03T01:00:18.864Z,0.00
2023-01-03T01:01:18.920Z,0.00
2023-01-03T01:02:18.987Z,0.00
2023-01-03T01:03:18.996Z,0.00
2023-01-03T01:04:18.824Z,0.00
2023-01-03T01:05:18.786Z,0.00
2023-01-03T01:06:18.808Z,0.00
2023-01-03T01:07:18.783Z,0.00
2023-01-03T01:08:18.767Z,0.00
2023-01-03T01:09:18.772Z,0.00
2023-01-03T01:10:18.747Z,0.00
2023-01-03T01:11:18.736Z,0.00
2023-01-03T01:12:18.708Z,0.00
2023-01-03T01:13:18.735Z,0.00
2023-01-03T01:14:18.710Z,0.00
2023-01-03T01:15:18.693Z,0.00
2023-01-03T01:16:18.731Z,0.00
2023-01-03T01:17:22.578Z,0.00
2023-01-03T01:18:18.659Z,0.00
2023-01-03T01:19:18.658Z,0.00
2023-01-03T01:20:18.638Z,0.00
2023-01-03T01:21:18.620Z,0.00
2023-01-03T01:22:18.599Z,0.00
2023-01-03T01:23:18.610Z,0.00
2023-01-03T01:24:18.601Z,0.00
2023-01-03T01:25:18.595Z,0.00
2023-01-03T01:26:18.571Z,0.00
2023-01-03T01:27:18.579Z,0.00
2023-01-03T01:28:18.549Z,0.00
2023-01-03T01:29:18.540Z,0.00
2023-01-03T01:30:18.531Z,0.00
2023-01-03T01:31:18.616Z,0.00
2023-01-03T01:32:18.526Z,0.00
2023-01-03T01:33:18.518Z,0.00
2023-01-03T01:34:18.499Z,0.00
2023-01-03T01:35:18.503Z,0.00
2023-01-03T01:36:18.460Z,0.00
2023-01-03T01:37:18.460Z,0.00
2023-01-03T01:38:18.450Z,0.00
2023-01-03T01:39:18.448Z,0.00
2023-01-03T01:40:18.415Z,0.00
2023-01-03T01:41:18.424Z,0.00
2023-01-03T01:42:20.223Z,0.00
2023-01-03T01:43:18.388Z,0.00
2023-01-03T01:44:18.383Z,0.00
2023-01-03T01:45:18.380Z,0.00
2023-01-03T01:46:18.414Z,0.00
2023-01-03T01:47:18.372Z,0.00
2023-01-03T01:48:18.347Z,0.00
2023-01-03T01:49:18.324Z,0.00
2023-01-03T01:50:18.354Z,0.00
2023-01-03T01:51:18.304Z,0.00
2023-01-03T01:52:18.292Z,0.00
2023-01-03T01:53:18.283Z,0.00
2023-01-03T01:54:18.295Z,0.00
2023-01-03T01:55:18.269Z,0.00
2023-01-03T01:56:18.274Z,0.00
2023-01-03T01:57:18.237Z,0.00
2023-01-03T01:58:18.244Z,0.00
2023-01-03T01:59:18.224Z,0.00
2023-01-03T02:00:18.217Z,0.00
2023-01-03T02:01:18.291Z,0.00
2023-01-03T02:02:18.406Z,0.00
2023-01-03T02:03:18.242Z,0.00
2023-01-03T02:04:18.163Z,0.00
2023-01-03T02:05:18.188Z,0.00
2023-01-03T02:06:18.138Z,0.00
2023-01-03T02:07:18.135Z,0.00
2023-01-03T02:08:18.140Z,0.00
2023-01-03T02:09:18.131Z,0.00
2023-01-03T02:10:18.107Z,0.00
2023-01-03T02:11:18.092Z,0.00
2023-01-03T02:12:18.096Z,0.00
2023-01-03T02:13:18.063Z,0.00
2023-01-03T02:14:18.045Z,0.00
2023-01-03T02:15:18.056Z,0.00
2023-01-03T02:16:18.122Z,0.00
2023-01-03T02:17:18.026Z,0.00
2023-01-03T02:18:17.994Z,0.00
2023-01-03T02:19:17.986Z,0.00
2023-01-03T02:20:18.009Z,0.00
2023-01-03T02:21:20.155Z,0.00
2023-01-03T02:22:17.955Z,0.00
2023-01-03T02:23:17.943Z,0.00
2023-01-03T02:24:17.938Z,0.00
2023-01-03T02:25:17.935Z,0.00
2023-01-03T02:26:17.932Z,0.00
2023-01-03T02:27:17.922Z,0.00
2023-01-03T02:28:17.886Z,0.00
2023-01-03T02:29:17.885Z,0.00
2023-01-03T02:30:17.900Z,0.00
2023-01-03T02:31:17.928Z,0.00
2023-01-03T02:32:17.865Z,0.00
2023-01-03T02:33:17.857Z,0.00
2023-01-03T02:34:17.855Z,0.00
2023-01-03T02:35:17.828Z,0.00
2023-01-03T02:36:17.825Z,0.00
2023-01-03T02:37:17.787Z,0.00
2023-01-03T02:38:17.798Z,0.00
2023-01-03T02:39:22.004Z,0.00
2023-01-03T02:40:18.783Z,0.00
2023-01-03T02:41:17.757Z,0.00
2023-01-03T02:42:17.760Z,0.00
2023-01-03T02:43:17.750Z,0.00
2023-01-03T02:44:17.724Z,0.00
2023-01-03T02:45:17.735Z,0.00
2023-01-03T02:46:17.746Z,0.00
2023-01-03T02:47:17.681Z,0.00
2023-01-03T02:48:17.705Z,0.00
2023-01-03T02:49:17.680Z,0.00
2023-01-03T02:50:17.658Z,0.00
2023-01-03T02:51:17.674Z,0.00
2023-01-03T02:52:17.659Z,0.00
2023-01-03T02:53:17.630Z,0.00
2023-01-03T02:54:17.647Z,0.00
2023-01-03T02:55:17.621Z,0.00
2023-01-03T02:56:17.609Z,0.00
2023-01-03T02:57:17.580Z,0.00
2023-01-03T02:58:17.582Z,0.00
2023-01-03T02:59:17.602Z,0.00
2023-01-03T03:00:17.553Z,0.00
2023-01-03T03:01:17.595Z,0.00
2023-01-03T03:02:17.615Z,0.00
2023-01-03T03:03:17.680Z,0.00
2023-01-03T03:04:17.520Z,0.00
2023-01-03T03:05:17.502Z,0.00
2023-01-03T03:06:17.505Z,0.00
2023-01-03T03:07:17.472Z,0.00
2023-01-03T03:08:17.483Z,0.00
2023-01-03T03:09:17.462Z,0.00
2023-01-03T03:10:17.470Z,0.00
2023-01-03T03:11:17.446Z,0.00
2023-01-03T03:12:17.445Z,0.00
2023-01-03T03:13:17.414Z,0.00
2023-01-03T03:14:17.423Z,0.00
2023-01-03T03:15:17.390Z,0.00
2023-01-03T03:16:17.475Z,0.00
2023-01-03T03:17:17.365Z,0.00
2023-01-03T03:18:17.374Z,0.00
2023-01-03T03:19:17.346Z,0.00
2023-01-03T03:20:17.379Z,0.00
2023-01-03T03:21:17.346Z,0.00
2023-01-03T03:22:17.326Z,0.00
2023-01-03T03:23:17.315Z,0.00
2023-01-03T03:24:17.296Z,0.00
2023-01-03T03:25:17.301Z,0.00
2023-01-03T03:26:17.287Z,0.00
2023-01-03T03:27:17.276Z,0.00
2023-01-03T03:28:17.252Z,0.00
2023-01-03T03:29:17.254Z,0.00
2023-01-03T03:30:17.246Z,0.00
2023-01-03T03:31:17.333Z,0.00
2023-01-03T03:32:17.209Z,0.00
2023-01-03T03:33:17.209Z,0.00
2023-01-03T03:34:17.188Z,0.00
2023-01-03T03:35:17.187Z,0.00
2023-01-03T03:36:17.188Z,0.00
2023-01-03T03:37:17.177Z,0.00
2023-01-03T03:38:17.181Z,0.00
2023-01-03T03:39:17.128Z,0.00
2023-01-03T03:40:17.171Z,0.00
2023-01-03T03:41:17.145Z,0.00
2023-01-03T03:42:17.103Z,0.00
2023-01-03T03:43:17.124Z,0.00
2023-01-03T03:44:17.117Z,0.00
2023-01-03T03:45:17.079Z,0.00
2023-01-03T03:46:17.090Z,0.00
2023-01-03T03:47:17.184Z,0.00
2023-01-03T03:48:17.056Z,0.00
2023-01-03T03:49:17.020Z,0.00
2023-01-03T03:50:17.029Z,0.00
2023-01-03T03:51:17.025Z,0.00
2023-01-03T03:52:17.003Z,0.00
2023-01-03T03:53:16.999Z,0.00
2023-01-03T03:54:16.994Z,0.00
2023-01-03T03:55:16.980Z,0.00
2023-01-03T03:56:16.973Z,0.00
2023-01-03T03:57:16.952Z,0.00
2023-01-03T03:58:16.953Z,0.00
2023-01-03T03:59:16.926Z,0.00
2023-01-03T04:00:16.934Z,0.00
2023-01-03T04:01:16.949Z,0.00
2023-01-03T04:02:16.973Z,0.00
2023-01-03T04:03:17.045Z,0.00
2023-01-03T04:04:16.880Z,0.00
2023-01-03T04:05:16.859Z,0.00
2023-01-03T04:06:16.865Z,0.00
2023-01-03T04:07:16.855Z,0.00
2023-01-03T04:08:16.852Z,0.00
2023-01-03T04:09:16.814Z,0.00
2023-01-03T04:10:16.821Z,0.00
2023-01-03T04:11:16.827Z,0.00
2023-01-03T04:12:16.784Z,0.00
2023-01-03T04:13:16.802Z,0.00
2023-01-03T04:14:16.770Z,0.00
2023-01-03T04:15:16.743Z,0.00
2023-01-03T04:16:16.810Z,0.00
2023-01-03T04:17:16.746Z,0.00
2023-01-03T04:18:16.736Z,0.00
2023-01-03T04:19:16.705Z,0.00
2023-01-03T04:20:16.707Z,0.00
2023-01-03T04:21:20.801Z,0.00
2023-01-03T04:22:16.698Z,0.00
2023-01-03T04:23:16.935Z,0.00
2023-01-03T04:24:16.671Z,0.00
2023-01-03T04:25:16.666Z,0.00
2023-01-03T04:26:16.636Z,0.00
2023-01-03T04:27:16.640Z,0.00
2023-01-03T04:28:16.628Z,0.00
2023-01-03T04:29:16.631Z,0.00
2023-01-03T04:30:16.606Z,0.00
2023-01-03T04:31:16.605Z,0.00
2023-01-03T04:32:16.587Z,0.00
2023-01-03T04:33:16.576Z,0.00
2023-01-03T04:34:16.558Z,0.00
2023-01-03T04:35:16.574Z,0.00
2023-01-03T04:36:16.547Z,0.00
2023-01-03T04:37:16.515Z,0.00
2023-01-03T04:38:16.547Z,0.00
2023-01-03T04:39:16.506Z,0.00
2023-01-03T04:40:16.524Z,0.00
2023-01-03T04:41:16.486Z,0.00
2023-01-03T04:42:16.469Z,0.00
2023-01-03T04:43:16.468Z,0.00
2023-01-03T04:44:16.469Z,0.00
2023-01-03T04:45:16.429Z,0.00
2023-01-03T04:46:16.471Z,0.00
2023-01-03T04:47:16.433Z,0.00
2023-01-03T04:48:16.418Z,0.00
2023-01-03T04:49:16.398Z,0.00
2023-01-03T04:50:16.402Z,0.00
2023-01-03T04:51:16.423Z,0.00
2023-01-03T04:52:16.363Z,0.00
2023-01-03T04:53:16.361Z,0.00
2023-01-03T04:54:16.349Z,0.00
2023-01-03T04:55:16.324Z,0.00
2023-01-03T04:56:16.330Z,0.00
2023-01-03T04:57:16.333Z,0.00
2023-01-03T04:58:16.303Z,0.00
2023-01-03T04:59:16.290Z,0.00
2023-01-03T05:00:16.286Z,0.00
2023-01-03T05:01:16.404Z,0.00
2023-01-03T05:02:16.409Z,0.00
2023-01-03T05:03:16.921Z,0.00
2023-01-03T05:04:16.283Z,0.00
2023-01-03T05:05:16.234Z,0.00
2023-01-03T05:06:16.225Z,0.00
2023-01-03T05:07:16.226Z,0.00
2023-01-03T05:08:16.202Z,0.00
2023-01-03T05:09:16.205Z,0.00
2023-01-03T05:10:16.170Z,0.00
2023-01-03T05:11:16.170Z,0.00
2023-01-03T05:12:16.162Z,0.00
2023-01-03T05:13:16.169Z,0.00
2023-01-03T05:14:16.123Z,0.00
2023-01-03T05:15:16.113Z,0.00
2023-01-03T05:16:16.192Z,0.00
2023-01-03T05:17:16.121Z,0.00
2023-01-03T05:18:16.102Z,0.00
2023-01-03T05:19:16.084Z,0.00
2023-01-03T05:20:16.063Z,0.00
2023-01-03T05:21:16.059Z,0.00
2023-01-03T05:22:16.053Z,0.00
2023-01-03T05:23:16.042Z,0.00
2023-01-03T05:24:16.023Z,0.00
2023-01-03T05:25:16.024Z,0.00
2023-01-03T05:26:16.009Z,0.00
2023-01-03T05:27:16.000Z,0.00
2023-01-03T05:28:17.711Z,0.00
2023-01-03T05:29:15.965Z,0.00
2023-01-03T05:30:15.964Z,0.00
2023-01-03T05:31:15.992Z,0.00
2023-01-03T05:32:16.019Z,0.00
2023-01-03T05:33:15.953Z,0.00
2023-01-03T05:34:15.930Z,0.00
2023-01-03T05:35:15.913Z,0.00
2023-01-03T05:36:16.746Z,0.00
2023-01-03T05:37:15.875Z,0.00
2023-01-03T05:38:16.047Z,0.00
2023-01-03T05:39:15.883Z,0.00
2023-01-03T05:40:15.873Z,0.00
2023-01-03T05:41:16.075Z,0.00
2023-01-03T05:42:15.854Z,0.00
2023-01-03T05:43:15.824Z,0.00
2023-01-03T05:44:15.827Z,0.00
2023-01-03T05:45:15.797Z,0.00
2023-01-03T05:46:15.842Z,0.00
2023-01-03T05:47:15.808Z,0.00
2023-01-03T05:48:15.766Z,0.00
2023-01-03T05:49:15.758Z,0.00
2023-01-03T05:50:15.737Z,0.00
2023-01-03T05:51:15.742Z,0.00
2023-01-03T05:52:15.748Z,0.00
2023-01-03T05:53:16.471Z,0.00
2023-01-03T05:54:15.730Z,0.00
2023-01-03T05:55:16.408Z,0.00
2023-01-03T05:56:15.705Z,0.00
2023-01-03T05:57:16.389Z,0.00
2023-01-03T05:58:15.702Z,0.00
2023-01-03T05:59:15.720Z,0.00
2023-01-03T06:00:15.654Z,0.00
2023-01-03T06:01:16.787Z,0.00
2023-01-03T06:02:15.816Z,0.00
2023-01-03T06:03:16.081Z,0.00
2023-01-03T06:04:15.652Z,0.00
2023-01-03T06:05:16.300Z,0.00
2023-01-03T06:06:15.617Z,0.00
2023-01-03T06:07:15.591Z,0.00
2023-01-03T06:08:15.561Z,0.00
2023-01-03T06:09:15.560Z,0.00
2023-01-03T06:10:15.539Z,0.00
2023-01-03T06:11:15.519Z,0.00
2023-01-03T06:12:15.519Z,0.00
2023-01-03T06:13:15.519Z,0.00
2023-01-03T06:14:15.492Z,0.00
2023-01-03T06:15:15.497Z,0.00
2023-01-03T06:16:18.922Z,0.00
2023-01-03T06:17:16.555Z,0.00
2023-01-03T06:18:15.451Z,0.00
2023-01-03T06:19:15.443Z,0.00
2023-01-03T06:20:15.460Z,0.00
2023-01-03T06:21:15.411Z,0.00
2023-01-03T06:22:15.413Z,0.00
2023-01-03T06:23:15.411Z,0.00
2023-01-03T06:24:15.398Z,0.00
2023-01-03T06:25:15.373Z,0.00
2023-01-03T06:26:15.365Z,0.00
2023-01-03T06:27:15.360Z,0.00
2023-01-03T06:28:15.354Z,0.00
2023-01-03T06:29:15.374Z,0.00
2023-01-03T06:30:15.313Z,0.00
2023-01-03T06:31:15.352Z,0.00
2023-01-03T06:32:15.307Z,0.00
2023-01-03T06:33:15.302Z,0.00
2023-01-03T06:34:15.283Z,0.00
2023-01-03T06:35:15.293Z,0.00
2023-01-03T06:36:15.262Z,0.00
2023-01-03T06:37:15.255Z,0.00
2023-01-03T06:38:15.226Z,0.00
2023-01-03T06:39:15.237Z,0.00
2023-01-03T06:40:15.229Z,0.00
2023-01-03T06:41:15.214Z,0.00
2023-01-03T06:42:15.195Z,0.00
2023-01-03T06:43:15.184Z,0.00
2023-01-03T06:44:15.204Z,0.00
2023-01-03T06:45:15.176Z,0.00
2023-01-03T06:46:15.209Z,0.00
2023-01-03T06:47:15.149Z,0.00
2023-01-03T06:48:15.127Z,0.00
2023-01-03T06:49:15.115Z,0.00
2023-01-03T06:50:15.144Z,0.00
2023-01-03T06:51:15.103Z,0.00
2023-01-03T06:52:15.083Z,0.00
2023-01-03T06:53:15.105Z,0.00
2023-01-03T06:54:15.068Z,0.00
2023-01-03T06:55:15.068Z,0.00
2023-01-03T06:56:15.047Z,0.00
2023-01-03T06:57:26.507Z,0.00
2023-01-03T06:58:16.056Z,0.00
2023-01-03T06:59:15.019Z,0.00
2023-01-03T07:00:15.019Z,0.00
2023-01-03T07:01:15.110Z,0.00
2023-01-03T07:02:15.161Z,0.00
2023-01-03T07:03:14.966Z,0.00
2023-01-03T07:04:15.036Z,0.00
2023-01-03T07:05:14.945Z,0.00
2023-01-03T07:06:14.933Z,0.00
2023-01-03T07:07:15.027Z,0.00
2023-01-03T07:08:14.909Z,0.00
2023-01-03T07:09:14.936Z,0.00
2023-01-03T07:10:14.888Z,0.00
2023-01-03T07:11:14.885Z,0.00
2023-01-03T07:12:14.899Z,0.00
2023-01-03T07:13:14.862Z,0.00
2023-01-03T07:14:14.851Z,0.00
2023-01-03T07:15:14.840Z,0.00
2023-01-03T07:16:14.973Z,0.00
2023-01-03T07:17:14.828Z,0.00
2023-01-03T07:18:14.821Z,0.00
2023-01-03T07:19:14.801Z,0.00
2023-01-03T07:20:14.809Z,0.00
2023-01-03T07:21:14.803Z,0.00
2023-01-03T07:22:14.769Z,0.00
2023-01-03T07:23:14.808Z,5.62
2023-01-03T07:24:14.754Z,5.62
2023-01-03T07:25:14.760Z,5.62
2023-01-03T07:26:14.729Z,5.62
2023-01-03T07:27:14.708Z,5.62
2023-01-03T07:28:14.708Z,5.62
2023-01-03T07:29:14.727Z,5.62
2023-01-03T07:30:14.690Z,5.62
2023-01-03T07:31:14.754Z,5.62
2023-01-03T07:32:14.706Z,11.25
2023-01-03T07:33:14.660Z,11.25
2023-01-03T07:34:14.673Z,11.25
2023-01-03T07:35:14.674Z,11.25
2023-01-03T07:36:14.622Z,11.25
2023-01-03T07:37:14.620Z,16.88
2023-01-03T07:38:14.615Z,16.88
2023-01-03T07:39:14.611Z,16.88
2023-01-03T07:40:14.583Z,16.88
2023-01-03T07:41:14.594Z,22.50
2023-01-03T07:42:14.580Z,22.50
2023-01-03T07:43:14.585Z,22.50
2023-01-03T07:44:14.523Z,28.12
2023-01-03T07:45:14.534Z,28.12
2023-01-03T07:46:14.617Z,28.12
2023-01-03T07:47:14.515Z,33.75
2023-01-03T07:48:14.481Z,33.75
2023-01-03T07:49:14.507Z,39.38
2023-01-03T07:50:14.474Z,39.38
2023-01-03T07:51:14.453Z,39.38
2023-01-03T07:52:14.449Z,45.00
2023-01-03T07:53:14.453Z,45.00
2023-01-03T07:54:14.433Z,45.00
2023-01-03T07:55:14.416Z,45.00
2023-01-03T07:56:14.417Z,45.00
2023-01-03T07:57:14.397Z,45.00
2023-01-03T07:58:14.426Z,45.00
2023-01-03T07:59:14.366Z,45.00
2023-01-03T08:00:14.364Z,45.00
2023-01-03T08:01:14.478Z,50.62
2023-01-03T08:02:14.425Z,50.62
2023-01-03T08:03:14.460Z,50.62
2023-01-03T08:04:14.367Z,50.62
2023-01-03T08:05:14.347Z,50.62
2023-01-03T08:06:14.294Z,50.62
2023-01-03T08:07:14.295Z,50.62
2023-01-03T08:08:14.265Z,50.62
2023-01-03T08:09:14.277Z,50.62
2023-01-03T08:10:14.257Z,50.62
2023-01-03T08:11:14.255Z,50.62
2023-01-03T08:12:14.255Z,50.62
2023-01-03T08:13:14.233Z,50.62
2023-01-03T08:14:14.204Z,50.62
2023-01-03T08:15:14.242Z,50.62
2023-01-03T08:16:14.234Z,50.62
2023-01-03T08:17:14.197Z,50.62
2023-01-03T08:18:14.257Z,56.25
2023-01-03T08:19:14.156Z,56.25
2023-01-03T08:20:14.155Z,56.25
2023-01-03T08:21:14.136Z,61.88
2023-01-03T08:22:14.139Z,61.88
2023-01-03T08:23:14.127Z,61.88
2023-01-03T08:24:14.120Z,61.88
2023-01-03T08:25:14.096Z,61.88
2023-01-03T08:26:14.101Z,61.88
2023-01-03T08:27:14.111Z,61.88
2023-01-03T08:28:14.058Z,61.88
2023-01-03T08:29:14.063Z,61.88
2023-01-03T08:30:14.054Z,61.88
2023-01-03T08:31:14.069Z,67.50
2023-01-03T08:32:14.032Z,67.50
2023-01-03T08:33:14.008Z,67.50
2023-01-03T08:34:19.715Z,67.50
2023-01-03T08:35:14.998Z,67.50
2023-01-03T08:36:13.968Z,67.50
2023-01-03T08:37:13.985Z,67.50
2023-01-03T08:38:13.959Z,67.50
2023-01-03T08:39:13.941Z,67.50
2023-01-03T08:40:13.949Z,67.50
2023-01-03T08:41:13.938Z,67.50
2023-01-03T08:42:13.948Z,67.50
2023-01-03T08:43:13.900Z,67.50
2023-01-03T08:44:13.899Z,73.12
2023-01-03T08:45:14.924Z,73.12
2023-01-03T08:46:13.931Z,73.12
2023-01-03T08:47:13.990Z,73.12
2023-01-03T08:48:13.859Z,78.75
2023-01-03T08:49:14.550Z,78.75
2023-01-03T08:50:13.862Z,78.75
2023-01-03T08:51:13.870Z,78.75
2023-01-03T08:52:13.829Z,78.75
2023-01-03T08:53:14.229Z,78.75
2023-01-03T08:54:13.816Z,78.75
2023-01-03T08:55:13.843Z,84.38
2023-01-03T08:56:13.767Z,84.38
2023-01-03T08:57:13.753Z,90.00
2023-01-03T08:58:13.761Z,90.00
2023-01-03T08:59:13.741Z,90.00
2023-01-03T09:00:13.721Z,90.00
2023-01-03T09:01:13.830Z,95.62
2023-01-03T09:02:13.886Z,95.62
2023-01-03T09:03:14.119Z,95.62
2023-01-03T09:04:13.940Z,95.62
2023-01-03T09:05:13.696Z,95.62
2023-01-03T09:06:13.651Z,95.62
2023-01-03T09:07:13.647Z,101.25
2023-01-03T09:08:13.655Z,101.25
2023-01-03T09:09:13.654Z,101.25
2023-01-03T09:10:13.616Z,101.25
2023-01-03T09:11:13.638Z,101.25
2023-01-03T09:12:13.642Z,101.25
2023-01-03T09:13:13.591Z,101.25
2023-01-03T09:14:13.595Z,101.25
2023-01-03T09:15:13.554Z,106.88
2023-01-03T09:16:13.597Z,106.88
2023-01-03T09:17:13.533Z,106.88
2023-01-03T09:18:13.547Z,106.88
2023-01-03T09:19:13.528Z,101.25
2023-01-03T09:20:13.538Z,101.25
2023-01-03T09:21:13.511Z,95.62
2023-01-03T09:22:13.484Z,95.62
2023-01-03T09:23:13.489Z,95.62
2023-01-03T09:24:13.467Z,95.62
2023-01-03T09:25:13.458Z,101.25
2023-01-03T09:26:13.434Z,101.25
2023-01-03T09:27:13.473Z,106.88
2023-01-03T09:28:13.414Z,106.88
2023-01-03T09:29:13.405Z,112.50
2023-01-03T09:30:13.393Z,106.88
2023-01-03T09:31:13.408Z,106.88
2023-01-03T09:32:13.426Z,106.88
2023-01-03T09:33:13.385Z,106.88
2023-01-03T09:34:13.364Z,112.50
2023-01-03T09:35:13.345Z,112.50
2023-01-03T09:36:13.349Z,112.50
2023-01-03T09:37:13.338Z,112.50
2023-01-03T09:38:13.339Z,112.50
2023-01-03T09:39:13.306Z,118.12
2023-01-03T09:40:13.303Z,118.12
2023-01-03T09:41:13.280Z,118.12
2023-01-03T09:42:13.286Z,118.12
2023-01-03T09:43:13.266Z,118.12
2023-01-03T09:44:13.266Z,118.12
2023-01-03T09:45:13.234Z,118.12
2023-01-03T09:46:13.230Z,118.12
2023-01-03T09:47:13.270Z,112.50
2023-01-03T09:48:13.236Z,112.50
2023-01-03T09:49:13.216Z,106.88
2023-01-03T09:50:44.232Z,106.88
2023-01-03T09:51:21.236Z,106.88
2023-01-03T09:52:14.182Z,106.88
2023-01-03T09:53:13.168Z,101.25
2023-01-03T09:54:13.838Z,106.88
2023-01-03T09:55:13.182Z,106.88
2023-01-03T09:56:14.142Z,101.25
2023-01-03T09:57:13.140Z,101.25
2023-01-03T09:58:14.088Z,101.25
2023-01-03T09:59:13.097Z,95.62
2023-01-03T10:00:13.770Z,101.25
2023-01-03T10:01:13.179Z,101.25
2023-01-03T10:02:13.974Z,101.25
2023-01-03T10:03:13.154Z,106.88
2023-01-03T10:04:13.868Z,106.88
2023-01-03T10:05:13.144Z,112.50
2023-01-03T10:06:13.092Z,106.88
2023-01-03T10:07:13.022Z,101.25
2023-01-03T10:08:13.113Z,101.25
2023-01-03T10:09:13.009Z,95.62
2023-01-03T10:10:14.550Z,90.00
2023-01-03T10:11:12.985Z,90.00
2023-01-03T10:12:12.954Z,90.00
2023-01-03T10:13:19.555Z,84.38
2023-01-03T10:14:13.964Z,84.38
2023-01-03T10:15:12.941Z,84.38
2023-01-03T10:16:13.026Z,84.38
2023-01-03T10:17:12.962Z,84.38
2023-01-03T10:18:12.892Z,78.75
2023-01-03T10:19:12.903Z,78.75
2023-01-03T10:20:12.872Z,73.12
2023-01-03T10:21:12.870Z,67.50
2023-01-03T10:22:12.862Z,67.50
2023-01-03T10:23:12.836Z,67.50
2023-01-03T10:24:12.871Z,67.50
2023-01-03T10:25:12.832Z,67.50
2023-01-03T10:26:12.825Z,67.50
2023-01-03T10:27:12.802Z,67.50
2023-01-03T10:28:13.514Z,67.50
2023-01-03T10:29:12.797Z,67.50
2023-01-03T10:30:13.740Z,67.50
2023-01-03T10:31:12.753Z,73.12
2023-01-03T10:32:13.776Z,73.12
2023-01-03T10:33:12.731Z,78.75
2023-01-03T10:34:13.694Z,78.75
2023-01-03T10:35:12.738Z,73.12
2023-01-03T10:36:13.467Z,73.12
2023-01-03T10:37:12.682Z,73.12
2023-01-03T10:38:13.671Z,73.12
2023-01-03T10:39:12.677Z,73.12
2023-01-03T10:40:12.703Z,73.12
2023-01-03T10:41:12.683Z,78.75
2023-01-03T10:42:13.625Z,84.38
2023-01-03T10:43:12.642Z,90.00
2023-01-03T10:44:13.593Z,90.00
2023-01-03T10:45:12.630Z,90.00
2023-01-03T10:46:12.630Z,95.62
2023-01-03T10:47:12.574Z,90.00
2023-01-03T10:48:12.576Z,95.62
2023-01-03T10:49:29.523Z,90.00
2023-01-03T10:50:13.565Z,90.00
2023-01-03T10:51:12.535Z,95.62
2023-01-03T10:52:12.538Z,95.62
2023-01-03T10:53:12.533Z,95.62
2023-01-03T10:54:12.512Z,95.62
2023-01-03T10:55:12.550Z,101.25
2023-01-03T10:56:12.486Z,101.25
2023-01-03T10:57:12.476Z,101.25
2023-01-03T10:58:12.465Z,101.25
2023-01-03T10:59:12.463Z,101.25
2023-01-03T11:00:12.457Z,101.25
2023-01-03T11:01:12.570Z,101.25
2023-01-03T11:02:12.671Z,101.25
2023-01-03T11:03:12.605Z,101.25
2023-01-03T11:04:12.417Z,101.25
2023-01-03T11:05:12.540Z,101.25
2023-01-03T11:06:12.386Z,101.25
2023-01-03T11:07:14.010Z,101.25
2023-01-03T11:08:12.366Z,101.25
2023-01-03T11:09:12.478Z,106.88
2023-01-03T11:10:12.366Z,106.88
2023-01-03T11:11:12.421Z,106.88
2023-01-03T11:12:12.325Z,106.88
2023-01-03T11:13:13.316Z,106.88
2023-01-03T11:14:12.343Z,106.88
2023-01-03T11:15:13.012Z,106.88
2023-01-03T11:16:12.328Z,106.88
2023-01-03T11:17:13.056Z,106.88
2023-01-03T11:18:12.287Z,112.50
2023-01-03T11:19:12.955Z,112.50
2023-01-03T11:20:12.249Z,112.50
2023-01-03T11:21:12.923Z,118.12
2023-01-03T11:22:12.212Z,118.12
2023-01-03T11:23:12.922Z,123.75
2023-01-03T11:24:12.219Z,129.38
2023-01-03T11:25:12.173Z,135.00
2023-01-03T11:26:12.183Z,146.25
2023-01-03T11:27:12.159Z,168.75
2023-01-03T11:28:16.163Z,292.50
2023-01-03T11:29:12.139Z,720.00
2023-01-03T11:30:12.151Z,928.12
2023-01-03T11:31:12.120Z,714.38
2023-01-03T11:32:12.145Z,466.88
2023-01-03T11:33:12.107Z,286.88
2023-01-03T11:34:12.081Z,174.38
2023-01-03T11:35:22.810Z,146.25
2023-01-03T11:36:13.080Z,146.25
2023-01-03T11:37:12.047Z,151.88
2023-01-03T11:38:12.031Z,151.88
2023-01-03T11:39:15.572Z,157.50
2023-01-03T11:40:13.043Z,163.12
2023-01-03T11:41:12.013Z,168.75
2023-01-03T11:42:11.991Z,174.38
2023-01-03T11:43:11.994Z,185.62
2023-01-03T11:44:11.977Z,196.88
2023-01-03T11:45:11.990Z,213.75
2023-01-03T11:46:12.017Z,388.12
2023-01-03T11:47:11.933Z,1006.88
2023-01-03T11:48:11.952Z,1417.50
2023-01-03T11:49:11.930Z,1434.38
2023-01-03T11:50:11.929Z,1485.00
2023-01-03T11:51:11.894Z,1535.62
2023-01-03T11:52:11.918Z,1546.88
2023-01-03T11:53:11.887Z,1569.38
2023-01-03T11:54:11.869Z,1625.62
2023-01-03T11:55:11.845Z,1665.00
2023-01-03T11:56:11.856Z,1653.75
2023-01-03T11:57:11.824Z,1681.88
2023-01-03T11:58:11.836Z,1715.62
2023-01-03T11:59:11.810Z,1715.62
2023-01-03T12:00:11.817Z,1710.00
2023-01-03T12:01:11.831Z,1732.50
2023-01-03T12:02:11.845Z,1766.25
2023-01-03T12:03:11.910Z,1771.88
2023-01-03T12:04:11.842Z,1794.38
2023-01-03T12:05:11.758Z,1816.88
2023-01-03T12:06:11.739Z,1839.38
2023-01-03T12:07:46.370Z,1884.38
2023-01-03T12:08:12.757Z,1901.25
2023-01-03T12:09:11.711Z,1890.00
2023-01-03T12:10:11.747Z,1873.12
2023-01-03T12:11:11.689Z,1867.50
2023-01-03T12:12:11.690Z,1901.25
2023-01-03T12:13:11.693Z,1895.62
2023-01-03T12:14:11.650Z,1890.00
2023-01-03T12:15:11.638Z,1878.75
2023-01-03T12:16:11.709Z,1856.25
2023-01-03T12:17:11.622Z,1867.50
2023-01-03T12:18:11.641Z,1895.62
2023-01-03T12:19:12.682Z,1906.88
2023-01-03T12:20:11.593Z,1873.12
2023-01-03T12:21:11.607Z,1878.75
2023-01-03T12:22:11.587Z,1901.25
2023-01-03T12:23:11.573Z,1901.25
2023-01-03T12:24:11.545Z,1923.75
2023-01-03T12:25:11.524Z,1918.12
2023-01-03T12:26:11.554Z,1974.38
2023-01-03T12:27:11.539Z,2109.38
2023-01-03T12:28:11.505Z,2115.00
2023-01-03T12:29:11.515Z,2019.38
2023-01-03T12:30:11.768Z,2002.50
2023-01-03T12:31:11.527Z,2019.38
2023-01-03T12:32:11.468Z,2002.50
2023-01-03T12:33:11.492Z,916.88
2023-01-03T12:34:11.454Z,1946.25
2023-01-03T12:35:11.444Z,1906.88
2023-01-03T12:36:11.428Z,1867.50
2023-01-03T12:37:11.406Z,1856.25
2023-01-03T12:38:11.405Z,1850.62
2023-01-03T12:39:11.401Z,1816.88
2023-01-03T12:40:11.400Z,1743.75
2023-01-03T12:41:11.371Z,1507.50
2023-01-03T12:42:11.391Z,1248.75
2023-01-03T12:43:11.353Z,1091.25
2023-01-03T12:44:11.335Z,1029.38
2023-01-03T12:45:11.324Z,1006.88
2023-01-03T12:46:13.175Z,990.00
2023-01-03T12:47:11.423Z,984.38
2023-01-03T12:48:11.297Z,978.75
2023-01-03T12:49:11.280Z,978.75
2023-01-03T12:50:11.321Z,736.88
2023-01-03T12:51:11.274Z,236.25
2023-01-03T12:52:16.733Z,950.62
2023-01-03T12:53:12.242Z,950.62
2023-01-03T12:54:11.246Z,933.75
2023-01-03T12:55:11.216Z,933.75
2023-01-03T12:56:11.217Z,933.75
2023-01-03T12:57:11.216Z,939.38
2023-01-03T12:58:11.186Z,928.12
2023-01-03T12:59:11.206Z,922.50